Terminal Aerodrome Forecast
Issued by NWS

Current Version | Previous Version | Graphics & Text | Print | Product List | Glossary On
Versions: 1 2 3 4 5 6 7 8 9 10 11 12 13 14 15 16 17 18 19 20 21
000
FTUS41 KILN 011100
TAFLCK
TAF
KLCK 011120Z 0112/0212 04006KT P6SM OVC014
     FM011400 01010KT P6SM VCSH OVC015
      TEMPO 0116/0120 5SM -RA BR OVC009
     FM012000 01010KT P6SM VCSH OVC015
     FM020200 03009KT P6SM SCT025 BKN100=

USA.gov is the U.S. government's official web portal to all federal, state and local government web resources and services.